Terminal Aerodrome Forecast
Issued by NWS

Home | Current Version | Previous Version | Text Only | Print | Product List | Glossary On
Versions: 1 2 3 4 5 6 7 8 9 10 11 12 13 14 15 16 17 18 19 20 21 22 23 24 25 26 27 28
000
FTUS41 KBUF 191100
TAFJHW
TAF
KJHW 191125Z 1912/2012 32008KT 6SM -SN OVC006
     FM191400 32008KT P6SM OVC015
     FM191600 31009KT P6SM OVC020
     FM192100 30008KT P6SM SCT080
     FM200000 29007KT P6SM BKN050
     FM200400 30006KT P6SM BKN140
     FM201000 29004KT P6SM OVC250
      AMD LTD TO CLD VIS AND WIND=

USA.gov is the U.S. government's official web portal to all federal, state and local government web resources and services.